Independence — WSID — position and weather

sailwx.info

Track history (hours):
 
Tides and Currents Weather Stations Pressure Air Temp Water Temp Dewpoint Dewpoint Depression Visibility Wind Speed Wind Dir Waves Ship Positions

Independence

Owner: SEA-Vista Newbuild I LLC, Fort Lauderdale, FL. More information available from US FCC via Universal Licensing System and Coast Guard Vessel Documentation Center.

Last reported at 2018-Jun-23 14:51 UTC. Time now 2018-Jun-24 09:12 UTC.
Position N 29°33' W 093°15'.

Length 186 m; draft 11.6 m.

Type: Tanker. MMSI: 338188000.

Date/timePositionNaut miles runAvg speedWind from/ knotsBaromVisibWave heightAir tempDewpointWater temp
2018-Jun-23 14:51N 29°33' W 093°15'410.2
2018-Jun-23 14:27N 29°36' W 093°18'4 8.5
2018-Jun-23 14:00N 29°40' W 093°20'4 7.5
2018-Jun-23 13:30N 29°44' W 093°20'4 8.4
2018-Jun-23 13:00N 29°48' W 093°21'4 8.6
2018-Jun-23 12:30N 29°52' W 093°21'4 7.6
2018-Jun-23 12:00N 29°56' W 093°20'4 7.2
2018-Jun-23 11:29N 29°60' W 093°20'3 5.3
2018-Jun-23 11:00N 30°02' W 093°20'3 6.5
2018-Jun-23 10:30N 30°05' W 093°20'3 5.5
2018-Jun-23 10:00N 30°08' W 093°20'2 3.6
2018-Jun-23 09:30N 30°10' W 093°19'2 3.3
2018-Jun-23 09:00N 30°11' W 093°18'2 4.4
2018-Jun-23 08:30N 30°12' W 093°16'1 1.8
2018-Jun-23 08:00N 30°13' W 093°16'1 1.8
2018-Jun-23 07:30N 30°14' W 093°15'0 0.0
2018-Jun-23 06:54N 30°14' W 093°15'0 0.0
2018-Jun-23 06:24N 30°14' W 093°15'0 0.0
2018-Jun-23 05:57N 30°14' W 093°15'0 0.0
2018-Jun-23 05:30N 30°14' W 093°15'0 0.0
2018-Jun-23 05:00N 30°14' W 093°15'0 0.0
2018-Jun-23 04:21N 30°14' W 093°15'0 0.0
2018-Jun-23 03:57N 30°14' W 093°15'0 0.0
2018-Jun-23 03:18N 30°14' W 093°15'0 0.0
2018-Jun-23 02:48N 30°14' W 093°15'0 0.0
2018-Jun-23 02:30N 30°14' W 093°15'0 0.0
2018-Jun-23 01:54N 30°14' W 093°15'0 0.0
2018-Jun-23 01:00N 30°14' W 093°15'0 0.0
2018-Jun-23 00:30N 30°14' W 093°15'0 0.0
2018-Jun-22 23:57N 30°14' W 093°15'0 0.0
2018-Jun-22 23:21N 30°14' W 093°15'0 0.0
2018-Jun-22 23:00N 30°14' W 093°15'0 0.0
2018-Jun-22 22:24N 30°14' W 093°15'0 0.0
2018-Jun-22 21:54N 30°14' W 093°15'0 0.0
2018-Jun-22 21:30N 30°14' W 093°15'0 0.0
2018-Jun-22 21:00N 30°14' W 093°15'0 0.0
2018-Jun-22 20:30N 30°14' W 093°15'0 0.0
2018-Jun-22 20:00N 30°14' W 093°15'0 0.0
2018-Jun-22 19:30N 30°14' W 093°15'0 0.0
2018-Jun-22 19:00N 30°14' W 093°15'0 0.0
2018-Jun-22 18:24N 30°14' W 093°15'0 0.0
2018-Jun-22 17:54N 30°14' W 093°15'0 0.0
2018-Jun-22 17:21N 30°14' W 093°15'0 0.0
2018-Jun-22 17:00N 30°14' W 093°15'0 0.0
2018-Jun-22 16:30N 30°14' W 093°15'0 0.0
2018-Jun-22 16:00N 30°14' W 093°15'0 0.0
2018-Jun-22 15:24N 30°14' W 093°15'0 0.0
2018-Jun-22 14:51N 30°14' W 093°15'0 0.0
2018-Jun-22 13:18N 30°14' W 093°15'0 0.0
2018-Jun-22 12:54N 30°14' W 093°15'0 0.0
2018-Jun-22 12:27N 30°14' W 093°15'0 0.0
2018-Jun-22 11:54N 30°14' W 093°15'0 0.0
2018-Jun-22 11:30N 30°14' W 093°15'0 0.0
2018-Jun-22 10:54N 30°14' W 093°15'0 0.0
2018-Jun-22 10:27N 30°14' W 093°15'0 0.0
2018-Jun-22 10:00N 30°14' W 093°15'0 0.0
2018-Jun-22 09:06N 30°14' W 093°15'0 0.0
2018-Jun-22 06:15N 30°14' W 093°15'0 0.0
2018-Jun-22 05:42N 30°14' W 093°15'0 0.0
2018-Jun-22 05:24N 30°14' W 093°15'0 0.0
2018-Jun-22 02:06N 30°14' W 093°15'0 0.0
2018-Jun-22 01:42N 30°14' W 093°15'0 0.0
2018-Jun-21 23:21N 30°14' W 093°15'0 0.0
2018-Jun-21 22:03N 30°14' W 093°15'0 0.0
2018-Jun-21 21:48N 30°14' W 093°15'0 0.0
2018-Jun-21 21:27N 30°14' W 093°15'0 0.0
2018-Jun-21 21:00N 30°14' W 093°15'0 0.0
2018-Jun-21 20:27N 30°14' W 093°15'0 0.0
2018-Jun-21 20:00N 30°14' W 093°15'0 0.0
2018-Jun-21 14:36N 30°14' W 093°15'0 0.0
2018-Jun-21 14:06N 30°14' W 093°15'0 0.0
2018-Jun-21 13:48N 30°14' W 093°15'0 0.0
2018-Jun-21 09:48N 30°14' W 093°15'0 0.0
2018-Jun-21 09:27N 30°14' W 093°15'0 0.0
2018-Jun-21 08:51N 30°14' W 093°15'0 0.0
2018-Jun-21 08:30N 30°14' W 093°15'0 0.0
2018-Jun-21 07:57N 30°14' W 093°15'0 0.0
2018-Jun-21 07:00N 30°14' W 093°15'0 0.0
2018-Jun-21 06:30N 30°14' W 093°15'0 0.0
2018-Jun-21 06:00N 30°14' W 093°15'0 0.0
2018-Jun-21 05:30N 30°14' W 093°15'0 0.0
2018-Jun-21 05:00N 30°14' W 093°15'0 0.0
2018-Jun-21 04:30N 30°14' W 093°15'0 0.0
2018-Jun-21 04:00N 30°14' W 093°15'0 0.0
2018-Jun-21 03:18N 30°14' W 093°15'0 0.0
2018-Jun-21 02:57N 30°14' W 093°15'0 0.0
2018-Jun-21 02:30N 30°14' W 093°15'0 0.0
2018-Jun-21 02:00N 30°14' W 093°15'0 0.0
2018-Jun-21 01:30N 30°14' W 093°15'0 0.0
2018-Jun-21 01:00N 30°14' W 093°15'0 0.0
2018-Jun-21 00:30N 30°14' W 093°15'0 0.0
2018-Jun-20 23:48N 30°14' W 093°15'0 0.0
2018-Jun-20 23:27N 30°14' W 093°15'0 0.0
2018-Jun-20 23:00N 30°14' W 093°15'0 0.0
2018-Jun-20 22:30N 30°14' W 093°15'0 0.0
2018-Jun-20 21:54N 30°14' W 093°15'0 0.0
2018-Jun-20 21:30N 30°14' W 093°15'0 0.0
2018-Jun-20 20:51N 30°14' W 093°15'0 0.0
2018-Jun-20 20:30N 30°14' W 093°15'0 0.0
2018-Jun-20 20:00N 30°14' W 093°15'0 0.0
2018-Jun-20 19:30N 30°14' W 093°15'0 0.0
2018-Jun-20 18:51N 30°14' W 093°15'0 0.0
2018-Jun-20 18:30N 30°14' W 093°15'0 0.0
2018-Jun-20 18:00N 30°14' W 093°15'0 0.0
2018-Jun-20 17:24N 30°14' W 093°15'0 0.0
2018-Jun-20 16:54N 30°14' W 093°15'0 0.0
2018-Jun-20 16:27N 30°14' W 093°15'0 0.0
2018-Jun-20 15:57N 30°14' W 093°15'0 0.0
2018-Jun-20 15:27N 30°14' W 093°15'0 0.0
2018-Jun-20 14:57N 30°14' W 093°15'0 0.0
2018-Jun-20 14:30N 30°14' W 093°15'0 0.0
2018-Jun-20 13:57N 30°14' W 093°15'0 0.0
2018-Jun-20 13:30N 30°14' W 093°15'0 0.0
2018-Jun-20 12:57N 30°14' W 093°15'0 0.0
2018-Jun-20 12:30N 30°14' W 093°15'0 0.0
2018-Jun-20 11:57N 30°14' W 093°15'0 0.0
2018-Jun-20 11:30N 30°14' W 093°15'0 0.0
2018-Jun-20 11:00N 30°14' W 093°15'0 0.0
2018-Jun-20 10:30N 30°14' W 093°15'0 0.0
2018-Jun-20 10:00N 30°14' W 093°15'0 0.0
2018-Jun-20 09:28N 30°14' W 093°15'0 0.0
2018-Jun-20 09:00N 30°14' W 093°15'0 0.0
2018-Jun-20 08:30N 30°14' W 093°15'0 0.0
2018-Jun-20 08:00N 30°14' W 093°15'0 0.0
2018-Jun-20 07:30N 30°14' W 093°15'0 0.0
2018-Jun-20 07:00N 30°14' W 093°15'0 0.0
2018-Jun-20 06:30N 30°14' W 093°15'0 0.0
2018-Jun-20 05:56N 30°14' W 093°15'0 0.0
2018-Jun-20 05:30N 30°14' W 093°15'0 0.0
2018-Jun-20 05:00N 30°14' W 093°15'0 0.0
2018-Jun-20 04:30N 30°14' W 093°15'0 0.0
2018-Jun-20 04:00N 30°14' W 093°15'0 0.0
2018-Jun-20 03:30N 30°14' W 093°15'0 0.0
2018-Jun-20 03:00N 30°14' W 093°15'0 0.0
2018-Jun-20 02:30N 30°14' W 093°15'0 0.0
2018-Jun-20 02:00N 30°14' W 093°15'0 0.0
2018-Jun-20 01:30N 30°14' W 093°15'0 0.0
2018-Jun-20 01:00N 30°14' W 093°15'0 0.0
2018-Jun-20 00:30N 30°14' W 093°15'1 2.3
2018-Jun-20 00:00N 30°13' W 093°16'3 5.7
2018-Jun-19 23:30N 30°11' W 093°18'3 5.2
2018-Jun-19 23:00N 30°09' W 093°20'3 6.9
2018-Jun-19 22:30N 30°05' W 093°20'4 8.0
2018-Jun-19 22:00N 30°01' W 093°20'4 7.6
2018-Jun-19 21:30N 29°58' W 093°20'5 9.8
2018-Jun-19 21:00N 29°53' W 093°21'5 9.7
2018-Jun-19 20:30N 29°48' W 093°21'5 9.9
2018-Jun-19 20:00N 29°43' W 093°20'510.5
2018-Jun-19 19:30N 29°38' W 093°19'2 5.0
2018-Jun-19 19:00N 29°36' W 093°17'2 3.6
2018-Jun-19 18:30N 29°34' W 093°16'  
2018-Jun-15 07:41N 25°16' W 080°04'211.4
2018-Jun-15 07:30N 25°18' W 080°03'511.0
2018-Jun-15 07:00N 25°23' W 080°01'611.0
2018-Jun-15 06:29N 25°29' W 079°60'511.2
2018-Jun-15 06:00N 25°34' W 079°58'611.6
2018-Jun-15 05:30N 25°40' W 079°57'611.6
2018-Jun-15 05:00N 25°45' W 079°56'611.6
2018-Jun-15 04:30N 25°51' W 079°58'612.3
2018-Jun-15 04:00N 25°57' W 079°60'612.5
2018-Jun-15 03:30N 26°03' W 080°02'5 9.6
2018-Jun-15 03:00N 26°06' W 080°07'1 1.0
2018-Jun-15 02:24N 26°06' W 080°07'0 0.0
2018-Jun-15 01:54N 26°06' W 080°07'0 0.0
2018-Jun-15 01:24N 26°06' W 080°07'0 0.0
2018-Jun-15 00:57N 26°06' W 080°07'0 0.0
2018-Jun-15 00:27N 26°06' W 080°07'0 0.0
2018-Jun-14 23:57N 26°06' W 080°07'0 0.0
2018-Jun-14 23:27N 26°06' W 080°07'0 0.0
2018-Jun-14 23:00N 26°06' W 080°07'0 0.0
2018-Jun-14 22:30N 26°06' W 080°07'0 0.0
2018-Jun-14 22:00N 26°06' W 080°07'0 0.0
2018-Jun-14 21:30N 26°06' W 080°07'0 0.0
2018-Jun-14 21:00N 26°06' W 080°07'0 0.0
2018-Jun-14 20:27N 26°06' W 080°07'0 0.0
2018-Jun-14 20:00N 26°06' W 080°07'0 0.0
2018-Jun-14 19:30N 26°06' W 080°07'0 0.0
2018-Jun-14 19:00N 26°06' W 080°07'0 0.0
2018-Jun-14 18:30N 26°06' W 080°07'0 0.0
2018-Jun-14 17:45N 26°06' W 080°07'0 0.0
2018-Jun-14 17:30N 26°06' W 080°07'0 0.0
2018-Jun-14 17:00N 26°06' W 080°07'0 0.0
2018-Jun-14 16:30N 26°06' W 080°07'0 0.0
2018-Jun-14 15:48N 26°06' W 080°07'0 0.0
2018-Jun-14 15:06N 26°06' W 080°07'0 0.0
2018-Jun-14 14:51N 26°06' W 080°07'0 0.0
2018-Jun-14 14:24N 26°06' W 080°07'0 0.0
2018-Jun-14 13:54N 26°06' W 080°07'0 0.0
2018-Jun-14 13:24N 26°06' W 080°07'0 0.0
2018-Jun-14 12:54N 26°06' W 080°07'0 0.0
2018-Jun-14 12:24N 26°06' W 080°07'0 0.0
2018-Jun-14 11:54N 26°06' W 080°07'0 0.0
2018-Jun-14 11:27N 26°06' W 080°07'0 0.0
2018-Jun-14 10:57N 26°06' W 080°07'0 0.0
2018-Jun-14 10:24N 26°06' W 080°07'0 0.0
2018-Jun-14 09:54N 26°06' W 080°07'0 0.0
2018-Jun-14 09:27N 26°06' W 080°07'0 0.0
2018-Jun-14 09:00N 26°06' W 080°07'0 0.0
2018-Jun-14 08:30N 26°06' W 080°07'0 0.0
2018-Jun-14 08:00N 26°06' W 080°07'0 0.0
2018-Jun-14 07:30N 26°06' W 080°07'0 0.0
2018-Jun-14 07:00N 26°06' W 080°07'0 0.0
2018-Jun-14 06:30N 26°06' W 080°07'0 0.0
2018-Jun-14 06:00N 26°06' W 080°07'0 0.0
2018-Jun-14 05:18N 26°06' W 080°07'0 0.0
2018-Jun-14 05:00N 26°06' W 080°07'0 0.0
2018-Jun-14 04:30N 26°06' W 080°07'0 0.0
2018-Jun-14 04:00N 26°06' W 080°07'0 0.0
2018-Jun-14 03:30N 26°06' W 080°07'0 0.0
2018-Jun-14 03:00N 26°06' W 080°07'0 0.0
2018-Jun-14 02:30N 26°06' W 080°07'0 0.0
2018-Jun-14 01:51N 26°06' W 080°07'0 0.0
2018-Jun-14 01:21N 26°06' W 080°07'0 0.0
2018-Jun-14 00:51N 26°06' W 080°07'0 0.2
2018-Jun-14 00:30N 26°06' W 080°07'1 2.4
2018-Jun-14 00:00N 26°06' W 080°06'4 8.8
2018-Jun-13 23:30N 26°05' W 080°01'2 3.0
2018-Jun-13 23:00N 26°06' W 079°60'1 2.9
2018-Jun-13 22:30N 26°08' W 080°00'2 4.0
2018-Jun-13 22:00N 26°10' W 080°01'1 2.4
2018-Jun-13 21:30N 26°11' W 080°01'0 0.5
2018-Jun-13 21:00N 26°11' W 080°01'0 0.3
2018-Jun-13 20:30N 26°11' W 080°01'0 0.3
2018-Jun-13 20:00N 26°11' W 080°01'0 0.7
2018-Jun-13 19:30N 26°11' W 080°02'1 1.1
2018-Jun-13 19:00N 26°11' W 080°01'1 2.1
2018-Jun-13 18:30N 26°09' W 080°01'1 1.4
2018-Jun-13 18:00N 26°09' W 080°01'1 1.7
2018-Jun-13 17:30N 26°08' W 080°02'1 1.3
2018-Jun-13 17:00N 26°07' W 080°02'1 1.0
2018-Jun-13 16:30N 26°07' W 080°02'0 1.0
2018-Jun-13 16:00N 26°07' W 080°02'0 0.5
2018-Jun-13 15:30N 26°07' W 080°02'0 0.9
2018-Jun-13 14:59N 26°07' W 080°02'  
Track history (hours):
 
Tides and Currents Weather Stations Pressure Air Temp Water Temp Dewpoint Dewpoint Depression Visibility Wind Speed Wind Dir Waves Ship Positions

Independence

Owner: SEA-Vista Newbuild I LLC, Fort Lauderdale, FL. More information available from US FCC via Universal Licensing System and Coast Guard Vessel Documentation Center.

Last reported at 2018-Jun-23 14:51 UTC. Time now 2018-Jun-24 09:12 UTC.
Position N 29°33' W 093°15'.

Length 186 m; draft 11.6 m.

Type: Tanker. MMSI: 338188000.

Date/timePositionNaut miles runAvg speedWind from/ knotsBaromVisibWave heightAir tempDewpointWater temp
2018-Jun-23 14:51N 29°33' W 093°15'410.2
2018-Jun-23 14:27N 29°36' W 093°18'4 8.5
2018-Jun-23 14:00N 29°40' W 093°20'4 7.5
2018-Jun-23 13:30N 29°44' W 093°20'4 8.4
2018-Jun-23 13:00N 29°48' W 093°21'4 8.6
2018-Jun-23 12:30N 29°52' W 093°21'4 7.6
2018-Jun-23 12:00N 29°56' W 093°20'4 7.2
2018-Jun-23 11:29N 29°60' W 093°20'3 5.3
2018-Jun-23 11:00N 30°02' W 093°20'3 6.5
2018-Jun-23 10:30N 30°05' W 093°20'3 5.5
2018-Jun-23 10:00N 30°08' W 093°20'2 3.6
2018-Jun-23 09:30N 30°10' W 093°19'2 3.3
2018-Jun-23 09:00N 30°11' W 093°18'2 4.4
2018-Jun-23 08:30N 30°12' W 093°16'1 1.8
2018-Jun-23 08:00N 30°13' W 093°16'1 1.8
2018-Jun-23 07:30N 30°14' W 093°15'0 0.0
2018-Jun-23 06:54N 30°14' W 093°15'0 0.0
2018-Jun-23 06:24N 30°14' W 093°15'0 0.0
2018-Jun-23 05:57N 30°14' W 093°15'0 0.0
2018-Jun-23 05:30N 30°14' W 093°15'0 0.0
2018-Jun-23 05:00N 30°14' W 093°15'0 0.0
2018-Jun-23 04:21N 30°14' W 093°15'0 0.0
2018-Jun-23 03:57N 30°14' W 093°15'0 0.0
2018-Jun-23 03:18N 30°14' W 093°15'0 0.0
2018-Jun-23 02:48N 30°14' W 093°15'0 0.0
2018-Jun-23 02:30N 30°14' W 093°15'0 0.0
2018-Jun-23 01:54N 30°14' W 093°15'0 0.0
2018-Jun-23 01:00N 30°14' W 093°15'0 0.0
2018-Jun-23 00:30N 30°14' W 093°15'0 0.0
2018-Jun-22 23:57N 30°14' W 093°15'0 0.0
2018-Jun-22 23:21N 30°14' W 093°15'0 0.0
2018-Jun-22 23:00N 30°14' W 093°15'0 0.0
2018-Jun-22 22:24N 30°14' W 093°15'0 0.0
2018-Jun-22 21:54N 30°14' W 093°15'0 0.0
2018-Jun-22 21:30N 30°14' W 093°15'0 0.0
2018-Jun-22 21:00N 30°14' W 093°15'0 0.0
2018-Jun-22 20:30N 30°14' W 093°15'0 0.0
2018-Jun-22 20:00N 30°14' W 093°15'0 0.0
2018-Jun-22 19:30N 30°14' W 093°15'0 0.0
2018-Jun-22 19:00N 30°14' W 093°15'0 0.0
2018-Jun-22 18:24N 30°14' W 093°15'0 0.0
2018-Jun-22 17:54N 30°14' W 093°15'0 0.0
2018-Jun-22 17:21N 30°14' W 093°15'0 0.0
2018-Jun-22 17:00N 30°14' W 093°15'0 0.0
2018-Jun-22 16:30N 30°14' W 093°15'0 0.0
2018-Jun-22 16:00N 30°14' W 093°15'0 0.0
2018-Jun-22 15:24N 30°14' W 093°15'0 0.0
2018-Jun-22 14:51N 30°14' W 093°15'0 0.0
2018-Jun-22 13:18N 30°14' W 093°15'0 0.0
2018-Jun-22 12:54N 30°14' W 093°15'0 0.0
2018-Jun-22 12:27N 30°14' W 093°15'0 0.0
2018-Jun-22 11:54N 30°14' W 093°15'0 0.0
2018-Jun-22 11:30N 30°14' W 093°15'0 0.0
2018-Jun-22 10:54N 30°14' W 093°15'0 0.0
2018-Jun-22 10:27N 30°14' W 093°15'0 0.0
2018-Jun-22 10:00N 30°14' W 093°15'0 0.0
2018-Jun-22 09:06N 30°14' W 093°15'0 0.0
2018-Jun-22 06:15N 30°14' W 093°15'0 0.0
2018-Jun-22 05:42N 30°14' W 093°15'0 0.0
2018-Jun-22 05:24N 30°14' W 093°15'0 0.0
2018-Jun-22 02:06N 30°14' W 093°15'0 0.0
2018-Jun-22 01:42N 30°14' W 093°15'0 0.0
2018-Jun-21 23:21N 30°14' W 093°15'0 0.0
2018-Jun-21 22:03N 30°14' W 093°15'0 0.0
2018-Jun-21 21:48N 30°14' W 093°15'0 0.0
2018-Jun-21 21:27N 30°14' W 093°15'0 0.0
2018-Jun-21 21:00N 30°14' W 093°15'0 0.0
2018-Jun-21 20:27N 30°14' W 093°15'0 0.0
2018-Jun-21 20:00N 30°14' W 093°15'0 0.0
2018-Jun-21 14:36N 30°14' W 093°15'0 0.0
2018-Jun-21 14:06N 30°14' W 093°15'0 0.0
2018-Jun-21 13:48N 30°14' W 093°15'0 0.0
2018-Jun-21 09:48N 30°14' W 093°15'0 0.0
2018-Jun-21 09:27N 30°14' W 093°15'0 0.0
2018-Jun-21 08:51N 30°14' W 093°15'0 0.0
2018-Jun-21 08:30N 30°14' W 093°15'0 0.0
2018-Jun-21 07:57N 30°14' W 093°15'0 0.0
2018-Jun-21 07:00N 30°14' W 093°15'0 0.0
2018-Jun-21 06:30N 30°14' W 093°15'0 0.0
2018-Jun-21 06:00N 30°14' W 093°15'0 0.0
2018-Jun-21 05:30N 30°14' W 093°15'0 0.0
2018-Jun-21 05:00N 30°14' W 093°15'0 0.0
2018-Jun-21 04:30N 30°14' W 093°15'0 0.0
2018-Jun-21 04:00N 30°14' W 093°15'0 0.0
2018-Jun-21 03:18N 30°14' W 093°15'0 0.0
2018-Jun-21 02:57N 30°14' W 093°15'0 0.0
2018-Jun-21 02:30N 30°14' W 093°15'0 0.0
2018-Jun-21 02:00N 30°14' W 093°15'0 0.0
2018-Jun-21 01:30N 30°14' W 093°15'0 0.0
2018-Jun-21 01:00N 30°14' W 093°15'0 0.0
2018-Jun-21 00:30N 30°14' W 093°15'0 0.0
2018-Jun-20 23:48N 30°14' W 093°15'0 0.0
2018-Jun-20 23:27N 30°14' W 093°15'0 0.0
2018-Jun-20 23:00N 30°14' W 093°15'0 0.0
2018-Jun-20 22:30N 30°14' W 093°15'0 0.0
2018-Jun-20 21:54N 30°14' W 093°15'0 0.0
2018-Jun-20 21:30N 30°14' W 093°15'0 0.0
2018-Jun-20 20:51N 30°14' W 093°15'0 0.0
2018-Jun-20 20:30N 30°14' W 093°15'0 0.0
2018-Jun-20 20:00N 30°14' W 093°15'0 0.0
2018-Jun-20 19:30N 30°14' W 093°15'0 0.0
2018-Jun-20 18:51N 30°14' W 093°15'0 0.0
2018-Jun-20 18:30N 30°14' W 093°15'0 0.0
2018-Jun-20 18:00N 30°14' W 093°15'0 0.0
2018-Jun-20 17:24N 30°14' W 093°15'0 0.0
2018-Jun-20 16:54N 30°14' W 093°15'0 0.0
2018-Jun-20 16:27N 30°14' W 093°15'0 0.0
2018-Jun-20 15:57N 30°14' W 093°15'0 0.0
2018-Jun-20 15:27N 30°14' W 093°15'0 0.0
2018-Jun-20 14:57N 30°14' W 093°15'0 0.0
2018-Jun-20 14:30N 30°14' W 093°15'0 0.0
2018-Jun-20 13:57N 30°14' W 093°15'0 0.0
2018-Jun-20 13:30N 30°14' W 093°15'0 0.0
2018-Jun-20 12:57N 30°14' W 093°15'0 0.0
2018-Jun-20 12:30N 30°14' W 093°15'0 0.0
2018-Jun-20 11:57N 30°14' W 093°15'0 0.0
2018-Jun-20 11:30N 30°14' W 093°15'0 0.0
2018-Jun-20 11:00N 30°14' W 093°15'0 0.0
2018-Jun-20 10:30N 30°14' W 093°15'0 0.0
2018-Jun-20 10:00N 30°14' W 093°15'0 0.0
2018-Jun-20 09:28N 30°14' W 093°15'0 0.0
2018-Jun-20 09:00N 30°14' W 093°15'0 0.0
2018-Jun-20 08:30N 30°14' W 093°15'0 0.0
2018-Jun-20 08:00N 30°14' W 093°15'0 0.0
2018-Jun-20 07:30N 30°14' W 093°15'0 0.0
2018-Jun-20 07:00N 30°14' W 093°15'0 0.0
2018-Jun-20 06:30N 30°14' W 093°15'0 0.0
2018-Jun-20 05:56N 30°14' W 093°15'0 0.0
2018-Jun-20 05:30N 30°14' W 093°15'0 0.0
2018-Jun-20 05:00N 30°14' W 093°15'0 0.0
2018-Jun-20 04:30N 30°14' W 093°15'0 0.0
2018-Jun-20 04:00N 30°14' W 093°15'0 0.0
2018-Jun-20 03:30N 30°14' W 093°15'0 0.0
2018-Jun-20 03:00N 30°14' W 093°15'0 0.0
2018-Jun-20 02:30N 30°14' W 093°15'0 0.0
2018-Jun-20 02:00N 30°14' W 093°15'0 0.0
2018-Jun-20 01:30N 30°14' W 093°15'0 0.0
2018-Jun-20 01:00N 30°14' W 093°15'0 0.0
2018-Jun-20 00:30N 30°14' W 093°15'1 2.3
2018-Jun-20 00:00N 30°13' W 093°16'3 5.7
2018-Jun-19 23:30N 30°11' W 093°18'3 5.2
2018-Jun-19 23:00N 30°09' W 093°20'3 6.9
2018-Jun-19 22:30N 30°05' W 093°20'4 8.0
2018-Jun-19 22:00N 30°01' W 093°20'4 7.6
2018-Jun-19 21:30N 29°58' W 093°20'5 9.8
2018-Jun-19 21:00N 29°53' W 093°21'5 9.7
2018-Jun-19 20:30N 29°48' W 093°21'5 9.9
2018-Jun-19 20:00N 29°43' W 093°20'510.5
2018-Jun-19 19:30N 29°38' W 093°19'2 5.0
2018-Jun-19 19:00N 29°36' W 093°17'2 3.6
2018-Jun-19 18:30N 29°34' W 093°16'  
2018-Jun-15 07:41N 25°16' W 080°04'211.4
2018-Jun-15 07:30N 25°18' W 080°03'511.0
2018-Jun-15 07:00N 25°23' W 080°01'611.0
2018-Jun-15 06:29N 25°29' W 079°60'511.2
2018-Jun-15 06:00N 25°34' W 079°58'611.6
2018-Jun-15 05:30N 25°40' W 079°57'611.6
2018-Jun-15 05:00N 25°45' W 079°56'611.6
2018-Jun-15 04:30N 25°51' W 079°58'612.3
2018-Jun-15 04:00N 25°57' W 079°60'612.5
2018-Jun-15 03:30N 26°03' W 080°02'5 9.6
2018-Jun-15 03:00N 26°06' W 080°07'1 1.0
2018-Jun-15 02:24N 26°06' W 080°07'0 0.0
2018-Jun-15 01:54N 26°06' W 080°07'0 0.0
2018-Jun-15 01:24N 26°06' W 080°07'0 0.0
2018-Jun-15 00:57N 26°06' W 080°07'0 0.0
2018-Jun-15 00:27N 26°06' W 080°07'0 0.0
2018-Jun-14 23:57N 26°06' W 080°07'0 0.0
2018-Jun-14 23:27N 26°06' W 080°07'0 0.0
2018-Jun-14 23:00N 26°06' W 080°07'0 0.0
2018-Jun-14 22:30N 26°06' W 080°07'0 0.0
2018-Jun-14 22:00N 26°06' W 080°07'0 0.0
2018-Jun-14 21:30N 26°06' W 080°07'0 0.0
2018-Jun-14 21:00N 26°06' W 080°07'0 0.0
2018-Jun-14 20:27N 26°06' W 080°07'0 0.0
2018-Jun-14 20:00N 26°06' W 080°07'0 0.0
2018-Jun-14 19:30N 26°06' W 080°07'0 0.0
2018-Jun-14 19:00N 26°06' W 080°07'0 0.0
2018-Jun-14 18:30N 26°06' W 080°07'0 0.0
2018-Jun-14 17:45N 26°06' W 080°07'0 0.0
2018-Jun-14 17:30N 26°06' W 080°07'0 0.0
2018-Jun-14 17:00N 26°06' W 080°07'0 0.0
2018-Jun-14 16:30N 26°06' W 080°07'0 0.0
2018-Jun-14 15:48N 26°06' W 080°07'0 0.0
2018-Jun-14 15:06N 26°06' W 080°07'0 0.0
2018-Jun-14 14:51N 26°06' W 080°07'0 0.0
2018-Jun-14 14:24N 26°06' W 080°07'0 0.0
2018-Jun-14 13:54N 26°06' W 080°07'0 0.0
2018-Jun-14 13:24N 26°06' W 080°07'0 0.0
2018-Jun-14 12:54N 26°06' W 080°07'0 0.0
2018-Jun-14 12:24N 26°06' W 080°07'0 0.0
2018-Jun-14 11:54N 26°06' W 080°07'0 0.0
2018-Jun-14 11:27N 26°06' W 080°07'0 0.0
2018-Jun-14 10:57N 26°06' W 080°07'0 0.0
2018-Jun-14 10:24N 26°06' W 080°07'0 0.0
2018-Jun-14 09:54N 26°06' W 080°07'0 0.0
2018-Jun-14 09:27N 26°06' W 080°07'0 0.0
2018-Jun-14 09:00N 26°06' W 080°07'0 0.0
2018-Jun-14 08:30N 26°06' W 080°07'0 0.0
2018-Jun-14 08:00N 26°06' W 080°07'0 0.0
2018-Jun-14 07:30N 26°06' W 080°07'0 0.0
2018-Jun-14 07:00N 26°06' W 080°07'0 0.0
2018-Jun-14 06:30N 26°06' W 080°07'0 0.0
2018-Jun-14 06:00N 26°06' W 080°07'0 0.0
2018-Jun-14 05:18N 26°06' W 080°07'0 0.0
2018-Jun-14 05:00N 26°06' W 080°07'0 0.0
2018-Jun-14 04:30N 26°06' W 080°07'0 0.0
2018-Jun-14 04:00N 26°06' W 080°07'0 0.0
2018-Jun-14 03:30N 26°06' W 080°07'0 0.0
2018-Jun-14 03:00N 26°06' W 080°07'0 0.0
2018-Jun-14 02:30N 26°06' W 080°07'0 0.0
2018-Jun-14 01:51N 26°06' W 080°07'0 0.0
2018-Jun-14 01:21N 26°06' W 080°07'0 0.0
2018-Jun-14 00:51N 26°06' W 080°07'0 0.2
2018-Jun-14 00:30N 26°06' W 080°07'1 2.4
2018-Jun-14 00:00N 26°06' W 080°06'4 8.8
2018-Jun-13 23:30N 26°05' W 080°01'2 3.0
2018-Jun-13 23:00N 26°06' W 079°60'1 2.9
2018-Jun-13 22:30N 26°08' W 080°00'2 4.0
2018-Jun-13 22:00N 26°10' W 080°01'1 2.4
2018-Jun-13 21:30N 26°11' W 080°01'0 0.5
2018-Jun-13 21:00N 26°11' W 080°01'0 0.3
2018-Jun-13 20:30N 26°11' W 080°01'0 0.3
2018-Jun-13 20:00N 26°11' W 080°01'0 0.7
2018-Jun-13 19:30N 26°11' W 080°02'1 1.1
2018-Jun-13 19:00N 26°11' W 080°01'1 2.1
2018-Jun-13 18:30N 26°09' W 080°01'1 1.4
2018-Jun-13 18:00N 26°09' W 080°01'1 1.7
2018-Jun-13 17:30N 26°08' W 080°02'1 1.3
2018-Jun-13 17:00N 26°07' W 080°02'1 1.0
2018-Jun-13 16:30N 26°07' W 080°02'0 1.0
2018-Jun-13 16:00N 26°07' W 080°02'0 0.5
2018-Jun-13 15:30N 26°07' W 080°02'0 0.9
2018-Jun-13 14:59N 26°07' W 080°02'  

Dump ship's entire track history